Terminal Aerodrome Forecast
Issued by NWS

Home | Current Version | Previous Version | Text Only | Print | Product List | Glossary On
Versions: 1 2 3 4 5 6 7 8 9 10 11 12 13 14 15 16 17 18
000
FTUS44 KMOB 201700 RRA
TAFBFM
TAF
KBFM 201746Z 2018/2118 14007KT P6SM FEW045
     FM202000 15007KT P6SM BKN250
     FM210900 00000KT P6SM BKN250
     FM211500 07006KT P6SM SKC=

USA.gov is the U.S. government's official web portal to all federal, state and local government web resources and services.